sensor_id;sensor_type;location;lat;lon;timestamp;temperature;humidity
63317;DHT22;49822;41.468;13.560;2024-01-06T00:00:20;12.00;97.10
63317;DHT22;49822;41.468;13.560;2024-01-06T00:02:50;12.10;96.20
63317;DHT22;49822;41.468;13.560;2024-01-06T00:05:16;12.00;96.10
63317;DHT22;49822;41.468;13.560;2024-01-06T00:07:42;12.20;96.30
63317;DHT22;49822;41.468;13.560;2024-01-06T00:10:08;12.20;95.80
63317;DHT22;49822;41.468;13.560;2024-01-06T00:12:35;12.20;96.30
63317;DHT22;49822;41.468;13.560;2024-01-06T00:15:02;12.30;96.30
63317;DHT22;49822;41.468;13.560;2024-01-06T00:17:28;12.40;95.80
63317;DHT22;49822;41.468;13.560;2024-01-06T00:19:54;12.40;95.70
63317;DHT22;49822;41.468;13.560;2024-01-06T00:22:21;12.40;95.90
63317;DHT22;49822;41.468;13.560;2024-01-06T00:24:47;12.40;95.60
63317;DHT22;49822;41.468;13.560;2024-01-06T00:27:14;12.50;95.40
63317;DHT22;49822;41.468;13.560;2024-01-06T00:29:41;12.50;95.30
63317;DHT22;49822;41.468;13.560;2024-01-06T00:32:07;12.50;95.00
63317;DHT22;49822;41.468;13.560;2024-01-06T00:34:33;12.40;95.30
63317;DHT22;49822;41.468;13.560;2024-01-06T00:36:59;12.50;95.30
63317;DHT22;49822;41.468;13.560;2024-01-06T00:39:25;12.50;95.10
63317;DHT22;49822;41.468;13.560;2024-01-06T00:41:51;12.60;95.30
63317;DHT22;49822;41.468;13.560;2024-01-06T00:44:17;12.30;95.20
63317;DHT22;49822;41.468;13.560;2024-01-06T00:46:45;12.30;95.50
63317;DHT22;49822;41.468;13.560;2024-01-06T00:49:11;12.30;95.80
63317;DHT22;49822;41.468;13.560;2024-01-06T00:51:37;12.40;96.20
63317;DHT22;49822;41.468;13.560;2024-01-06T00:54:04;12.50;96.10
63317;DHT22;49822;41.468;13.560;2024-01-06T00:56:30;12.40;95.80
63317;DHT22;49822;41.468;13.560;2024-01-06T00:58:56;12.50;95.90
63317;DHT22;49822;41.468;13.560;2024-01-06T01:01:22;12.60;95.80
63317;DHT22;49822;41.468;13.560;2024-01-06T01:03:48;12.60;95.50
63317;DHT22;49822;41.468;13.560;2024-01-06T01:06:14;12.60;95.40
63317;DHT22;49822;41.468;13.560;2024-01-06T01:08:41;12.70;95.40
63317;DHT22;49822;41.468;13.560;2024-01-06T01:11:07;12.70;95.30
63317;DHT22;49822;41.468;13.560;2024-01-06T01:13:33;12.60;95.40
63317;DHT22;49822;41.468;13.560;2024-01-06T01:15:59;12.60;95.50
63317;DHT22;49822;41.468;13.560;2024-01-06T01:18:26;12.80;95.00
63317;DHT22;49822;41.468;13.560;2024-01-06T01:20:52;12.80;94.80
63317;DHT22;49822;41.468;13.560;2024-01-06T01:23:18;12.70;94.80
63317;DHT22;49822;41.468;13.560;2024-01-06T01:25:44;12.80;94.80
63317;DHT22;49822;41.468;13.560;2024-01-06T01:28:10;12.80;94.90
63317;DHT22;49822;41.468;13.560;2024-01-06T01:30:37;12.80;94.60
63317;DHT22;49822;41.468;13.560;2024-01-06T01:33:20;12.80;94.60
63317;DHT22;49822;41.468;13.560;2024-01-06T01:35:46;12.90;94.50
63317;DHT22;49822;41.468;13.560;2024-01-06T01:38:12;12.80;94.30
63317;DHT22;49822;41.468;13.560;2024-01-06T01:40:38;12.80;94.40
63317;DHT22;49822;41.468;13.560;2024-01-06T01:43:04;12.60;95.00
63317;DHT22;49822;41.468;13.560;2024-01-06T01:45:32;12.70;95.10
63317;DHT22;49822;41.468;13.560;2024-01-06T01:47:58;12.60;95.10
63317;DHT22;49822;41.468;13.560;2024-01-06T01:50:24;12.50;95.80
63317;DHT22;49822;41.468;13.560;2024-01-06T01:52:54;12.40;95.70
63317;DHT22;49822;41.468;13.560;2024-01-06T01:55:20;12.30;96.00
63317;DHT22;49822;41.468;13.560;2024-01-06T01:57:47;12.30;96.40
63317;DHT22;49822;41.468;13.560;2024-01-06T02:00:14;12.20;96.80
63317;DHT22;49822;41.468;13.560;2024-01-06T02:02:41;12.30;97.20
63317;DHT22;49822;41.468;13.560;2024-01-06T02:05:07;12.50;97.30
63317;DHT22;49822;41.468;13.560;2024-01-06T02:07:33;12.50;96.90
63317;DHT22;49822;41.468;13.560;2024-01-06T02:09:59;12.50;97.10
63317;DHT22;49822;41.468;13.560;2024-01-06T02:12:26;12.40;97.20
63317;DHT22;49822;41.468;13.560;2024-01-06T02:14:52;12.50;97.30
63317;DHT22;49822;41.468;13.560;2024-01-06T02:17:18;12.70;97.00
63317;DHT22;49822;41.468;13.560;2024-01-06T02:19:44;12.70;96.50
63317;DHT22;49822;41.468;13.560;2024-01-06T02:22:10;12.60;96.80
63317;DHT22;49822;41.468;13.560;2024-01-06T02:24:37;12.60;96.90
63317;DHT22;49822;41.468;13.560;2024-01-06T02:27:04;12.70;96.40
63317;DHT22;49822;41.468;13.560;2024-01-06T02:29:30;12.40;96.40
63317;DHT22;49822;41.468;13.560;2024-01-06T02:31:56;12.20;97.80
63317;DHT22;49822;41.468;13.560;2024-01-06T02:34:22;12.10;98.80
63317;DHT22;49822;41.468;13.560;2024-01-06T02:36:47;12.20;99.20
63317;DHT22;49822;41.468;13.560;2024-01-06T02:39:14;12.20;99.10
63317;DHT22;49822;41.468;13.560;2024-01-06T02:41:40;12.20;98.70
63317;DHT22;49822;41.468;13.560;2024-01-06T02:44:06;12.30;99.00
63317;DHT22;49822;41.468;13.560;2024-01-06T02:46:34;12.30;99.20
63317;DHT22;49822;41.468;13.560;2024-01-06T02:49:00;12.50;99.00
63317;DHT22;49822;41.468;13.560;2024-01-06T02:51:26;12.70;98.20
63317;DHT22;49822;41.468;13.560;2024-01-06T02:53:52;12.80;97.90
63317;DHT22;49822;41.468;13.560;2024-01-06T02:56:18;12.80;97.60
63317;DHT22;49822;41.468;13.560;2024-01-06T02:58:44;12.90;97.20
63317;DHT22;49822;41.468;13.560;2024-01-06T03:01:11;12.80;96.90
63317;DHT22;49822;41.468;13.560;2024-01-06T03:03:37;12.90;97.00
63317;DHT22;49822;41.468;13.560;2024-01-06T03:06:04;12.80;96.90
63317;DHT22;49822;41.468;13.560;2024-01-06T03:08:30;12.90;96.90
63317;DHT22;49822;41.468;13.560;2024-01-06T03:10:56;12.80;96.60
63317;DHT22;49822;41.468;13.560;2024-01-06T03:13:24;12.80;96.50
63317;DHT22;49822;41.468;13.560;2024-01-06T03:15:50;12.80;97.10
63317;DHT22;49822;41.468;13.560;2024-01-06T03:18:16;12.80;97.50
63317;DHT22;49822;41.468;13.560;2024-01-06T03:20:42;12.80;97.20
63317;DHT22;49822;41.468;13.560;2024-01-06T03:23:08;12.50;97.40
63317;DHT22;49822;41.468;13.560;2024-01-06T03:25:35;12.30;98.70
63317;DHT22;49822;41.468;13.560;2024-01-06T03:28:01;12.20;99.50
63317;DHT22;49822;41.468;13.560;2024-01-06T03:30:27;12.20;99.90
63317;DHT22;49822;41.468;13.560;2024-01-06T03:32:56;12.30;99.90
63317;DHT22;49822;41.468;13.560;2024-01-06T03:35:22;12.30;99.90
63317;DHT22;49822;41.468;13.560;2024-01-06T03:37:48;12.40;99.90
63317;DHT22;49822;41.468;13.560;2024-01-06T03:40:14;12.60;99.90
63317;DHT22;49822;41.468;13.560;2024-01-06T03:42:40;12.50;99.90
63317;DHT22;49822;41.468;13.560;2024-01-06T03:45:07;12.50;99.90
63317;DHT22;49822;41.468;13.560;2024-01-06T03:47:33;12.40;99.90
63317;DHT22;49822;41.468;13.560;2024-01-06T03:49:59;12.60;99.90
63317;DHT22;49822;41.468;13.560;2024-01-06T03:52:25;12.50;99.90
63317;DHT22;49822;41.468;13.560;2024-01-06T03:54:52;12.60;99.90
63317;DHT22;49822;41.468;13.560;2024-01-06T03:57:18;12.60;99.90
63317;DHT22;49822;41.468;13.560;2024-01-06T03:59:44;12.60;99.90
63317;DHT22;49822;41.468;13.560;2024-01-06T04:02:10;12.70;99.70
63317;DHT22;49822;41.468;13.560;2024-01-06T04:04:36;12.60;99.70
63317;DHT22;49822;41.468;13.560;2024-01-06T04:07:03;12.70;99.00
63317;DHT22;49822;41.468;13.560;2024-01-06T04:09:29;12.80;98.90
63317;DHT22;49822;41.468;13.560;2024-01-06T04:11:56;12.80;98.70
63317;DHT22;49822;41.468;13.560;2024-01-06T04:14:22;12.80;98.60
63317;DHT22;49822;41.468;13.560;2024-01-06T04:16:48;12.70;99.10
63317;DHT22;49822;41.468;13.560;2024-01-06T04:19:14;12.60;99.40
63317;DHT22;49822;41.468;13.560;2024-01-06T04:21:41;12.40;99.90
63317;DHT22;49822;41.468;13.560;2024-01-06T04:24:07;12.60;99.90
63317;DHT22;49822;41.468;13.560;2024-01-06T04:26:34;12.60;99.90
63317;DHT22;49822;41.468;13.560;2024-01-06T04:29:00;12.60;99.90
63317;DHT22;49822;41.468;13.560;2024-01-06T04:31:26;12.70;99.60
63317;DHT22;49822;41.468;13.560;2024-01-06T04:33:53;12.70;99.90
63317;DHT22;49822;41.468;13.560;2024-01-06T04:36:19;12.60;99.90
63317;DHT22;49822;41.468;13.560;2024-01-06T04:38:45;12.70;98.70
63317;DHT22;49822;41.468;13.560;2024-01-06T04:41:11;12.60;99.20
63317;DHT22;49822;41.468;13.560;2024-01-06T04:43:37;12.70;98.80
63317;DHT22;49822;41.468;13.560;2024-01-06T04:46:04;12.50;99.10
63317;DHT22;49822;41.468;13.560;2024-01-06T04:48:30;12.50;99.40
63317;DHT22;49822;41.468;13.560;2024-01-06T04:50:56;12.40;99.70
63317;DHT22;49822;41.468;13.560;2024-01-06T04:53:23;12.40;99.90
63317;DHT22;49822;41.468;13.560;2024-01-06T04:55:49;12.40;99.90
63317;DHT22;49822;41.468;13.560;2024-01-06T04:58:15;12.70;99.90
63317;DHT22;49822;41.468;13.560;2024-01-06T05:00:41;12.70;99.80
63317;DHT22;49822;41.468;13.560;2024-01-06T05:03:07;12.70;99.80
63317;DHT22;49822;41.468;13.560;2024-01-06T05:05:34;12.70;99.70
63317;DHT22;49822;41.468;13.560;2024-01-06T05:08:00;12.60;99.90
63317;DHT22;49822;41.468;13.560;2024-01-06T05:10:27;12.60;99.90
63317;DHT22;49822;41.468;13.560;2024-01-06T05:12:53;12.60;99.90
63317;DHT22;49822;41.468;13.560;2024-01-06T05:15:22;12.70;99.90
63317;DHT22;49822;41.468;13.560;2024-01-06T05:17:50;12.90;99.90
63317;DHT22;49822;41.468;13.560;2024-01-06T05:20:16;12.80;99.90
63317;DHT22;49822;41.468;13.560;2024-01-06T05:22:42;12.90;99.90
63317;DHT22;49822;41.468;13.560;2024-01-06T05:25:09;12.90;99.80
63317;DHT22;49822;41.468;13.560;2024-01-06T05:27:35;12.90;99.40
63317;DHT22;49822;41.468;13.560;2024-01-06T05:30:02;12.80;99.30
63317;DHT22;49822;41.468;13.560;2024-01-06T05:32:28;12.80;99.50
63317;DHT22;49822;41.468;13.560;2024-01-06T05:34:54;13.10;99.70
63317;DHT22;49822;41.468;13.560;2024-01-06T05:37:20;13.00;99.80
63317;DHT22;49822;41.468;13.560;2024-01-06T05:39:47;13.10;99.70
63317;DHT22;49822;41.468;13.560;2024-01-06T05:42:13;13.10;99.60
63317;DHT22;49822;41.468;13.560;2024-01-06T05:44:41;13.00;99.50
63317;DHT22;49822;41.468;13.560;2024-01-06T05:47:07;13.00;99.70
63317;DHT22;49822;41.468;13.560;2024-01-06T05:49:34;13.10;99.80
63317;DHT22;49822;41.468;13.560;2024-01-06T05:52:00;13.10;99.50
63317;DHT22;49822;41.468;13.560;2024-01-06T05:54:26;13.10;99.60
63317;DHT22;49822;41.468;13.560;2024-01-06T05:56:53;13.10;99.70
63317;DHT22;49822;41.468;13.560;2024-01-06T05:59:19;13.10;99.50
63317;DHT22;49822;41.468;13.560;2024-01-06T06:01:45;13.10;99.30
63317;DHT22;49822;41.468;13.560;2024-01-06T06:04:11;13.10;99.20
63317;DHT22;49822;41.468;13.560;2024-01-06T06:06:38;13.10;98.90
63317;DHT22;49822;41.468;13.560;2024-01-06T06:09:04;13.00;98.80
63317;DHT22;49822;41.468;13.560;2024-01-06T06:11:36;13.00;99.30
63317;DHT22;49822;41.468;13.560;2024-01-06T06:14:02;12.80;99.60
63317;DHT22;49822;41.468;13.560;2024-01-06T06:16:29;12.80;99.70
63317;DHT22;49822;41.468;13.560;2024-01-06T06:18:56;12.80;99.90
63317;DHT22;49822;41.468;13.560;2024-01-06T06:21:22;13.00;99.90
63317;DHT22;49822;41.468;13.560;2024-01-06T06:23:48;13.00;99.90
63317;DHT22;49822;41.468;13.560;2024-01-06T06:26:14;12.90;99.90
63317;DHT22;49822;41.468;13.560;2024-01-06T06:28:40;13.00;99.90
63317;DHT22;49822;41.468;13.560;2024-01-06T06:31:07;13.00;99.90
63317;DHT22;49822;41.468;13.560;2024-01-06T06:33:33;12.90;99.60
63317;DHT22;49822;41.468;13.560;2024-01-06T06:35:59;12.90;99.80
63317;DHT22;49822;41.468;13.560;2024-01-06T06:38:26;12.90;99.90
63317;DHT22;49822;41.468;13.560;2024-01-06T06:40:52;13.00;99.60
63317;DHT22;49822;41.468;13.560;2024-01-06T06:43:19;13.10;99.70
63317;DHT22;49822;41.468;13.560;2024-01-06T06:45:46;13.00;99.30
63317;DHT22;49822;41.468;13.560;2024-01-06T06:48:12;12.80;99.00
63317;DHT22;49822;41.468;13.560;2024-01-06T06:50:39;12.90;99.20
63317;DHT22;49822;41.468;13.560;2024-01-06T06:53:07;12.90;99.50
63317;DHT22;49822;41.468;13.560;2024-01-06T06:55:33;13.00;99.30
63317;DHT22;49822;41.468;13.560;2024-01-06T06:58:00;12.90;99.50
63317;DHT22;49822;41.468;13.560;2024-01-06T07:00:28;13.00;99.20
63317;DHT22;49822;41.468;13.560;2024-01-06T07:02:58;12.90;98.90
63317;DHT22;49822;41.468;13.560;2024-01-06T07:05:24;13.00;99.00
63317;DHT22;49822;41.468;13.560;2024-01-06T07:07:53;12.90;98.90
63317;DHT22;49822;41.468;13.560;2024-01-06T07:10:20;12.90;98.90
63317;DHT22;49822;41.468;13.560;2024-01-06T07:12:46;13.00;98.90
63317;DHT22;49822;41.468;13.560;2024-01-06T07:15:13;12.80;99.00
63317;DHT22;49822;41.468;13.560;2024-01-06T07:17:39;12.40;99.90
63317;DHT22;49822;41.468;13.560;2024-01-06T07:20:06;12.20;99.90
63317;DHT22;49822;41.468;13.560;2024-01-06T07:22:33;12.10;99.90
63317;DHT22;49822;41.468;13.560;2024-01-06T07:25:01;12.30;99.90
63317;DHT22;49822;41.468;13.560;2024-01-06T07:27:27;12.40;99.90
63317;DHT22;49822;41.468;13.560;2024-01-06T07:29:53;12.50;99.90
63317;DHT22;49822;41.468;13.560;2024-01-06T07:32:24;12.70;99.90
63317;DHT22;49822;41.468;13.560;2024-01-06T07:34:51;12.70;99.90
63317;DHT22;49822;41.468;13.560;2024-01-06T07:37:18;12.70;99.90
63317;DHT22;49822;41.468;13.560;2024-01-06T07:39:44;12.60;99.90
63317;DHT22;49822;41.468;13.560;2024-01-06T07:42:10;12.80;99.80
63317;DHT22;49822;41.468;13.560;2024-01-06T07:44:38;12.60;99.80
63317;DHT22;49822;41.468;13.560;2024-01-06T07:47:05;12.60;99.90
63317;DHT22;49822;41.468;13.560;2024-01-06T07:49:31;12.50;99.90
63317;DHT22;49822;41.468;13.560;2024-01-06T07:51:58;12.60;99.90
63317;DHT22;49822;41.468;13.560;2024-01-06T07:54:33;12.70;99.90
63317;DHT22;49822;41.468;13.560;2024-01-06T07:56:59;12.80;99.60
63317;DHT22;49822;41.468;13.560;2024-01-06T07:59:26;12.90;99.10
63317;DHT22;49822;41.468;13.560;2024-01-06T08:01:52;12.90;99.50
63317;DHT22;49822;41.468;13.560;2024-01-06T08:04:19;12.90;99.10
63317;DHT22;49822;41.468;13.560;2024-01-06T08:06:45;12.90;98.90
63317;DHT22;49822;41.468;13.560;2024-01-06T08:09:11;13.10;98.80
63317;DHT22;49822;41.468;13.560;2024-01-06T08:11:37;12.90;98.70
63317;DHT22;49822;41.468;13.560;2024-01-06T08:14:03;13.00;98.60
63317;DHT22;49822;41.468;13.560;2024-01-06T08:16:29;13.00;98.90
63317;DHT22;49822;41.468;13.560;2024-01-06T08:18:55;12.90;98.90
63317;DHT22;49822;41.468;13.560;2024-01-06T08:21:22;13.10;99.20
63317;DHT22;49822;41.468;13.560;2024-01-06T08:23:48;13.10;99.40
63317;DHT22;49822;41.468;13.560;2024-01-06T08:26:14;13.10;99.00
63317;DHT22;49822;41.468;13.560;2024-01-06T08:28:40;13.20;98.80
63317;DHT22;49822;41.468;13.560;2024-01-06T08:31:06;13.20;98.70
63317;DHT22;49822;41.468;13.560;2024-01-06T08:33:32;13.20;98.70
63317;DHT22;49822;41.468;13.560;2024-01-06T08:35:58;13.20;98.90
63317;DHT22;49822;41.468;13.560;2024-01-06T08:38:24;13.20;98.50
63317;DHT22;49822;41.468;13.560;2024-01-06T08:40:50;13.10;98.40
63317;DHT22;49822;41.468;13.560;2024-01-06T08:43:18;13.10;98.80
63317;DHT22;49822;41.468;13.560;2024-01-06T08:45:45;13.20;98.60
63317;DHT22;49822;41.468;13.560;2024-01-06T08:48:11;13.20;98.60
63317;DHT22;49822;41.468;13.560;2024-01-06T08:50:40;13.20;98.70
63317;DHT22;49822;41.468;13.560;2024-01-06T08:53:07;13.20;98.80
63317;DHT22;49822;41.468;13.560;2024-01-06T08:55:33;13.30;98.80
63317;DHT22;49822;41.468;13.560;2024-01-06T08:57:59;13.20;98.90
63317;DHT22;49822;41.468;13.560;2024-01-06T09:00:26;13.10;99.20
63317;DHT22;49822;41.468;13.560;2024-01-06T09:02:54;13.10;99.60
63317;DHT22;49822;41.468;13.560;2024-01-06T09:05:20;13.10;99.40
63317;DHT22;49822;41.468;13.560;2024-01-06T09:07:46;13.00;99.10
63317;DHT22;49822;41.468;13.560;2024-01-06T09:10:18;13.10;98.50
63317;DHT22;49822;41.468;13.560;2024-01-06T09:12:45;13.20;98.60
63317;DHT22;49822;41.468;13.560;2024-01-06T09:15:11;13.40;98.70
63317;DHT22;49822;41.468;13.560;2024-01-06T09:17:37;13.40;98.90
63317;DHT22;49822;41.468;13.560;2024-01-06T09:20:04;13.50;98.70
63317;DHT22;49822;41.468;13.560;2024-01-06T09:22:31;13.60;98.70
63317;DHT22;49822;41.468;13.560;2024-01-06T09:24:58;13.70;98.70
63317;DHT22;49822;41.468;13.560;2024-01-06T09:27:25;13.70;98.50
63317;DHT22;49822;41.468;13.560;2024-01-06T09:29:50;13.80;98.80
63317;DHT22;49822;41.468;13.560;2024-01-06T09:32:17;13.80;98.60
63317;DHT22;49822;41.468;13.560;2024-01-06T09:34:44;13.80;98.70
63317;DHT22;49822;41.468;13.560;2024-01-06T09:37:10;13.90;98.70
63317;DHT22;49822;41.468;13.560;2024-01-06T09:39:37;13.90;98.40
63317;DHT22;49822;41.468;13.560;2024-01-06T09:42:05;14.00;98.30
63317;DHT22;49822;41.468;13.560;2024-01-06T09:44:32;14.00;98.70
63317;DHT22;49822;41.468;13.560;2024-01-06T09:46:59;14.00;98.50
63317;DHT22;49822;41.468;13.560;2024-01-06T09:49:31;14.10;98.50
63317;DHT22;49822;41.468;13.560;2024-01-06T09:52:01;14.10;98.30
63317;DHT22;49822;41.468;13.560;2024-01-06T09:54:30;14.10;98.30
63317;DHT22;49822;41.468;13.560;2024-01-06T09:57:02;14.20;98.30
63317;DHT22;49822;41.468;13.560;2024-01-06T09:59:30;14.20;98.30
63317;DHT22;49822;41.468;13.560;2024-01-06T10:02:01;14.10;98.20
63317;DHT22;49822;41.468;13.560;2024-01-06T10:04:27;14.10;98.40
63317;DHT22;49822;41.468;13.560;2024-01-06T10:06:53;14.20;98.30
63317;DHT22;49822;41.468;13.560;2024-01-06T10:09:26;14.10;98.50
63317;DHT22;49822;41.468;13.560;2024-01-06T10:11:55;14.10;98.80
63317;DHT22;49822;41.468;13.560;2024-01-06T10:14:24;14.10;98.50
63317;DHT22;49822;41.468;13.560;2024-01-06T10:20:37;14.10;98.50
63317;DHT22;49822;41.468;13.560;2024-01-06T10:23:07;14.10;98.30
63317;DHT22;49822;41.468;13.560;2024-01-06T10:25:35;14.00;98.30
63317;DHT22;49822;41.468;13.560;2024-01-06T10:31:26;13.90;98.50
63317;DHT22;49822;41.468;13.560;2024-01-06T10:33:57;13.50;99.20
63317;DHT22;49822;41.468;13.560;2024-01-06T10:36:24;13.40;99.90
63317;DHT22;49822;41.468;13.560;2024-01-06T10:38:52;13.50;99.90
63317;DHT22;49822;41.468;13.560;2024-01-06T10:41:20;13.50;99.90
63317;DHT22;49822;41.468;13.560;2024-01-06T10:43:48;13.50;99.90
63317;DHT22;49822;41.468;13.560;2024-01-06T10:46:19;13.50;99.90
63317;DHT22;49822;41.468;13.560;2024-01-06T10:48:46;13.60;99.90
63317;DHT22;49822;41.468;13.560;2024-01-06T10:51:13;13.70;99.90
63317;DHT22;49822;41.468;13.560;2024-01-06T10:53:48;13.70;99.80
63317;DHT22;49822;41.468;13.560;2024-01-06T10:56:16;13.70;99.40
63317;DHT22;49822;41.468;13.560;2024-01-06T10:58:47;13.60;99.50
63317;DHT22;49822;41.468;13.560;2024-01-06T11:01:19;13.70;99.50
63317;DHT22;49822;41.468;13.560;2024-01-06T11:03:48;13.70;99.50
63317;DHT22;49822;41.468;13.560;2024-01-06T11:06:14;13.80;99.50
63317;DHT22;49822;41.468;13.560;2024-01-06T11:09:09;13.90;99.30
63317;DHT22;49822;41.468;13.560;2024-01-06T11:11:38;13.90;98.80
63317;DHT22;49822;41.468;13.560;2024-01-06T11:14:24;13.70;98.60
63317;DHT22;49822;41.468;13.560;2024-01-06T11:16:52;13.60;98.60
63317;DHT22;49822;41.468;13.560;2024-01-06T11:22:30;13.60;99.00
63317;DHT22;49822;41.468;13.560;2024-01-06T11:25:06;13.80;98.90
63317;DHT22;49822;41.468;13.560;2024-01-06T11:27:33;13.60;98.60
63317;DHT22;49822;41.468;13.560;2024-01-06T11:30:03;13.70;98.70
63317;DHT22;49822;41.468;13.560;2024-01-06T11:32:41;13.70;98.40
63317;DHT22;49822;41.468;13.560;2024-01-06T11:35:10;13.70;98.30
63317;DHT22;49822;41.468;13.560;2024-01-06T11:42:48;13.60;98.00
63317;DHT22;49822;41.468;13.560;2024-01-06T11:45:15;13.60;98.10
63317;DHT22;49822;41.468;13.560;2024-01-06T11:47:48;13.50;98.40
63317;DHT22;49822;41.468;13.560;2024-01-06T11:50:17;13.60;98.30
63317;DHT22;49822;41.468;13.560;2024-01-06T11:52:46;13.60;98.40
63317;DHT22;49822;41.468;13.560;2024-01-06T11:55:12;13.60;98.80
63317;DHT22;49822;41.468;13.560;2024-01-06T11:57:47;13.60;98.70
63317;DHT22;49822;41.468;13.560;2024-01-06T12:00:18;13.50;98.90
63317;DHT22;49822;41.468;13.560;2024-01-06T12:02:47;13.60;99.20
63317;DHT22;49822;41.468;13.560;2024-01-06T12:05:14;13.60;99.00
63317;DHT22;49822;41.468;13.560;2024-01-06T12:07:41;13.70;98.80
63317;DHT22;49822;41.468;13.560;2024-01-06T12:10:10;13.60;98.90
63317;DHT22;49822;41.468;13.560;2024-01-06T12:12:37;13.70;98.60
63317;DHT22;49822;41.468;13.560;2024-01-06T12:15:06;13.60;98.80
63317;DHT22;49822;41.468;13.560;2024-01-06T12:17:39;13.70;99.00
63317;DHT22;49822;41.468;13.560;2024-01-06T12:20:07;13.70;98.90
63317;DHT22;49822;41.468;13.560;2024-01-06T12:22:34;13.60;98.60
63317;DHT22;49822;41.468;13.560;2024-01-06T12:25:01;13.70;98.80
63317;DHT22;49822;41.468;13.560;2024-01-06T12:27:32;13.60;98.60
63317;DHT22;49822;41.468;13.560;2024-01-06T12:29:59;13.60;98.80
63317;DHT22;49822;41.468;13.560;2024-01-06T12:32:26;13.60;99.00
63317;DHT22;49822;41.468;13.560;2024-01-06T12:34:53;13.50;99.10
63317;DHT22;49822;41.468;13.560;2024-01-06T12:37:19;13.50;99.20
63317;DHT22;49822;41.468;13.560;2024-01-06T12:39:47;13.50;99.00
63317;DHT22;49822;41.468;13.560;2024-01-06T12:42:15;13.40;99.90
63317;DHT22;49822;41.468;13.560;2024-01-06T12:44:43;13.40;99.80
63317;DHT22;49822;41.468;13.560;2024-01-06T12:47:09;13.30;99.80
63317;DHT22;49822;41.468;13.560;2024-01-06T12:49:37;13.30;99.90
63317;DHT22;49822;41.468;13.560;2024-01-06T12:52:04;13.30;99.70
63317;DHT22;49822;41.468;13.560;2024-01-06T12:54:30;13.30;99.60
63317;DHT22;49822;41.468;13.560;2024-01-06T12:56:56;13.30;99.70
63317;DHT22;49822;41.468;13.560;2024-01-06T12:59:23;13.30;99.90
63317;DHT22;49822;41.468;13.560;2024-01-06T13:01:49;13.30;99.90
63317;DHT22;49822;41.468;13.560;2024-01-06T13:04:16;13.20;99.80
63317;DHT22;49822;41.468;13.560;2024-01-06T13:06:42;13.30;99.70
63317;DHT22;49822;41.468;13.560;2024-01-06T13:09:09;13.30;99.80
63317;DHT22;49822;41.468;13.560;2024-01-06T13:11:37;13.20;99.60
63317;DHT22;49822;41.468;13.560;2024-01-06T13:14:03;13.20;99.80
63317;DHT22;49822;41.468;13.560;2024-01-06T13:16:30;13.20;99.80
63317;DHT22;49822;41.468;13.560;2024-01-06T13:18:56;13.30;99.90
63317;DHT22;49822;41.468;13.560;2024-01-06T13:21:23;13.30;99.80
63317;DHT22;49822;41.468;13.560;2024-01-06T13:23:50;13.30;99.90
63317;DHT22;49822;41.468;13.560;2024-01-06T13:26:16;13.30;99.50
63317;DHT22;49822;41.468;13.560;2024-01-06T13:28:43;13.30;99.60
63317;DHT22;49822;41.468;13.560;2024-01-06T13:31:09;13.30;99.60
63317;DHT22;49822;41.468;13.560;2024-01-06T13:33:35;13.40;99.60
63317;DHT22;49822;41.468;13.560;2024-01-06T13:36:02;13.30;99.70
63317;DHT22;49822;41.468;13.560;2024-01-06T13:38:29;13.40;99.80
63317;DHT22;49822;41.468;13.560;2024-01-06T13:40:55;13.40;99.60
63317;DHT22;49822;41.468;13.560;2024-01-06T13:43:22;13.40;99.60
63317;DHT22;49822;41.468;13.560;2024-01-06T13:45:49;13.60;99.60
63317;DHT22;49822;41.468;13.560;2024-01-06T13:48:17;13.40;99.10
63317;DHT22;49822;41.468;13.560;2024-01-06T13:50:44;13.40;99.30
63317;DHT22;49822;41.468;13.560;2024-01-06T13:53:12;13.30;99.60
63317;DHT22;49822;41.468;13.560;2024-01-06T13:55:38;13.40;99.70
63317;DHT22;49822;41.468;13.560;2024-01-06T13:58:04;13.40;99.70
63317;DHT22;49822;41.468;13.560;2024-01-06T14:00:32;13.40;99.70
63317;DHT22;49822;41.468;13.560;2024-01-06T14:03:04;13.30;99.20
63317;DHT22;49822;41.468;13.560;2024-01-06T14:05:33;13.30;99.80
63317;DHT22;49822;41.468;13.560;2024-01-06T14:08:01;13.20;99.90
63317;DHT22;49822;41.468;13.560;2024-01-06T14:10:27;13.30;99.90
63317;DHT22;49822;41.468;13.560;2024-01-06T14:12:56;13.30;99.70
63317;DHT22;49822;41.468;13.560;2024-01-06T14:15:26;13.20;99.70
63317;DHT22;49822;41.468;13.560;2024-01-06T14:17:59;13.30;99.60
63317;DHT22;49822;41.468;13.560;2024-01-06T14:20:26;13.30;99.70
63317;DHT22;49822;41.468;13.560;2024-01-06T14:22:53;13.40;99.80
63317;DHT22;49822;41.468;13.560;2024-01-06T14:25:22;13.30;99.60
63317;DHT22;49822;41.468;13.560;2024-01-06T14:27:48;13.30;99.20
63317;DHT22;49822;41.468;13.560;2024-01-06T14:30:14;13.10;99.30
63317;DHT22;49822;41.468;13.560;2024-01-06T14:32:44;13.10;99.40
63317;DHT22;49822;41.468;13.560;2024-01-06T14:35:12;13.00;99.00
63317;DHT22;49822;41.468;13.560;2024-01-06T14:37:42;12.80;98.20
63317;DHT22;49822;41.468;13.560;2024-01-06T14:40:14;12.70;97.40
63317;DHT22;49822;41.468;13.560;2024-01-06T14:42:43;12.50;96.90
63317;DHT22;49822;41.468;13.560;2024-01-06T14:45:19;12.60;96.20
63317;DHT22;49822;41.468;13.560;2024-01-06T14:47:50;12.60;96.00
63317;DHT22;49822;41.468;13.560;2024-01-06T14:50:17;12.30;95.40
63317;DHT22;49822;41.468;13.560;2024-01-06T14:52:43;12.30;96.20
63317;DHT22;49822;41.468;13.560;2024-01-06T14:55:14;12.30;96.40
63317;DHT22;49822;41.468;13.560;2024-01-06T14:57:41;12.60;96.60
63317;DHT22;49822;41.468;13.560;2024-01-06T15:00:07;12.70;96.30
63317;DHT22;49822;41.468;13.560;2024-01-06T15:02:38;12.80;95.90
63317;DHT22;49822;41.468;13.560;2024-01-06T15:05:05;12.80;96.10
63317;DHT22;49822;41.468;13.560;2024-01-06T15:07:34;12.80;96.20
63317;DHT22;49822;41.468;13.560;2024-01-06T15:10:01;12.80;94.90
63317;DHT22;49822;41.468;13.560;2024-01-06T15:12:27;12.80;94.80
63317;DHT22;49822;41.468;13.560;2024-01-06T15:18:44;12.70;94.80
63317;DHT22;49822;41.468;13.560;2024-01-06T15:21:13;12.70;94.90
63317;DHT22;49822;41.468;13.560;2024-01-06T15:23:41;12.70;95.10
63317;DHT22;49822;41.468;13.560;2024-01-06T15:26:07;12.80;95.10
63317;DHT22;49822;41.468;13.560;2024-01-06T15:28:33;12.60;95.90
63317;DHT22;49822;41.468;13.560;2024-01-06T15:30:59;12.60;96.30
63317;DHT22;49822;41.468;13.560;2024-01-06T15:33:26;12.60;96.60